createdAt,value
2018-10-09T00:02:05.297Z,87.20
2018-10-09T00:04:33.784Z,87.00
2018-10-09T00:07:02.323Z,87.40
2018-10-09T00:09:30.962Z,87.10
2018-10-09T00:11:59.364Z,87.50
2018-10-09T00:14:28.616Z,87.70
2018-10-09T00:16:57.093Z,87.60
2018-10-09T00:19:25.517Z,87.60
2018-10-09T00:21:53.957Z,88.10
2018-10-09T00:24:22.362Z,87.80
2018-10-09T00:26:50.846Z,88.00
2018-10-09T00:29:21.980Z,88.10
2018-10-09T00:31:50.345Z,88.40
2018-10-09T00:34:18.780Z,87.70
2018-10-09T00:36:47.211Z,87.80
2018-10-09T00:39:15.679Z,87.80
2018-10-09T00:41:44.053Z,88.10
2018-10-09T00:44:12.416Z,87.60
2018-10-09T00:46:40.804Z,87.50
2018-10-09T00:49:09.221Z,87.90
2018-10-09T00:51:37.645Z,87.60
2018-10-09T00:54:06.048Z,88.60
2018-10-09T00:56:34.578Z,87.50
2018-10-09T00:59:03.235Z,87.00
2018-10-09T01:01:31.698Z,87.60
2018-10-09T01:04:00.212Z,88.10
2018-10-09T01:06:28.696Z,88.10
2018-10-09T01:08:57.209Z,87.50
2018-10-09T01:11:25.649Z,87.50
2018-10-09T01:13:54.164Z,87.80
2018-10-09T01:16:22.629Z,87.80
2018-10-09T01:18:51.062Z,88.70
2018-10-09T01:21:19.515Z,88.40
2018-10-09T01:23:47.896Z,87.80
2018-10-09T01:26:16.366Z,87.90
2018-10-09T01:28:44.793Z,88.10
2018-10-09T01:31:13.185Z,87.60
2018-10-09T01:33:41.592Z,87.40
2018-10-09T01:36:10.126Z,87.70
2018-10-09T01:38:40.034Z,87.70
2018-10-09T01:41:08.532Z,87.80
2018-10-09T01:43:36.978Z,89.00
2018-10-09T01:46:05.406Z,88.70
2018-10-09T01:48:33.912Z,88.90
2018-10-09T01:51:02.535Z,89.30
2018-10-09T01:53:31.011Z,89.00
2018-10-09T01:55:59.466Z,89.20
2018-10-09T01:58:27.986Z,89.20
2018-10-09T02:00:56.413Z,88.90
2018-10-09T02:03:24.856Z,89.30
2018-10-09T02:05:53.358Z,89.70
2018-10-09T02:08:21.861Z,89.20
2018-10-09T02:10:50.287Z,89.60
2018-10-09T02:13:18.721Z,89.70
2018-10-09T02:15:47.302Z,90.00
2018-10-09T02:18:15.748Z,88.80
2018-10-09T02:20:44.248Z,89.50
2018-10-09T02:23:12.835Z,90.10
2018-10-09T02:25:41.398Z,89.50
2018-10-09T02:28:09.819Z,88.90
2018-10-09T02:30:38.276Z,89.40
2018-10-09T02:33:07.401Z,89.70
2018-10-09T02:35:35.899Z,90.10
2018-10-09T02:38:04.423Z,89.80
2018-10-09T02:40:32.920Z,90.10
2018-10-09T02:43:01.509Z,90.00
2018-10-09T02:45:29.918Z,90.00
2018-10-09T02:47:58.645Z,90.10
2018-10-09T02:50:27.013Z,89.50
2018-10-09T02:52:55.546Z,89.70
2018-10-09T02:55:24.037Z,89.30
2018-10-09T02:57:52.472Z,89.40
2018-10-09T03:00:20.935Z,89.80
2018-10-09T03:02:49.368Z,89.80
2018-10-09T03:05:17.865Z,89.80
2018-10-09T03:07:46.302Z,90.10
2018-10-09T03:10:14.656Z,89.90
2018-10-09T03:12:43.189Z,89.00
2018-10-09T03:15:11.638Z,89.50
2018-10-09T03:17:40.061Z,89.10
2018-10-09T03:20:08.518Z,89.40
2018-10-09T03:22:37.005Z,89.00
2018-10-09T03:25:05.568Z,88.90
2018-10-09T03:27:34.162Z,89.30
2018-10-09T03:30:02.642Z,89.40
2018-10-09T03:32:31.157Z,90.20
2018-10-09T03:34:59.568Z,90.00
2018-10-09T03:37:28.061Z,89.60
2018-10-09T03:39:56.490Z,90.00
2018-10-09T03:42:24.929Z,90.30
2018-10-09T03:44:53.409Z,89.60
2018-10-09T03:47:22.039Z,90.00
2018-10-09T03:49:50.426Z,90.20
2018-10-09T03:52:18.942Z,90.40
2018-10-09T03:54:47.431Z,90.30
2018-10-09T03:57:15.887Z,90.10
2018-10-09T03:59:44.409Z,90.30
2018-10-09T04:02:12.833Z,90.10
2018-10-09T04:04:41.183Z,90.00
2018-10-09T04:07:09.590Z,90.00
2018-10-09T04:09:38.176Z,90.20
2018-10-09T04:12:06.806Z,90.20
2018-10-09T04:14:35.366Z,90.10
2018-10-09T04:17:04.027Z,90.30
2018-10-09T04:19:32.579Z,90.00
2018-10-09T04:22:01.136Z,89.50
2018-10-09T04:24:29.672Z,90.60
2018-10-09T04:26:58.127Z,90.30
2018-10-09T04:29:26.638Z,90.30
2018-10-09T04:31:55.064Z,90.40
2018-10-09T04:34:23.561Z,90.30
2018-10-09T04:36:52.042Z,90.60
2018-10-09T04:39:20.569Z,90.20
2018-10-09T04:41:49.190Z,90.30
2018-10-09T04:44:17.680Z,90.50
2018-10-09T04:46:46.079Z,90.70
2018-10-09T04:49:14.485Z,90.50
2018-10-09T04:51:42.916Z,90.60
2018-10-09T04:54:11.378Z,90.60
2018-10-09T04:56:39.843Z,90.50
2018-10-09T04:59:08.439Z,90.60
2018-10-09T05:01:36.778Z,90.70
2018-10-09T05:04:05.301Z,90.80
2018-10-09T05:06:33.820Z,90.80
2018-10-09T05:09:02.337Z,90.60
2018-10-09T05:11:30.860Z,90.70
2018-10-09T05:13:59.750Z,90.60
2018-10-09T05:16:28.210Z,90.70
2018-10-09T05:18:56.808Z,90.70
2018-10-09T05:21:25.249Z,90.40
2018-10-09T05:23:53.712Z,90.70
2018-10-09T05:26:22.165Z,90.80
2018-10-09T05:28:50.700Z,90.50
2018-10-09T05:31:19.263Z,90.40
2018-10-09T05:33:47.605Z,90.70
2018-10-09T05:36:15.979Z,90.80
2018-10-09T05:38:44.831Z,90.80
2018-10-09T05:41:13.283Z,90.80
2018-10-09T05:43:41.758Z,90.80
2018-10-09T05:46:10.178Z,91.00
2018-10-09T05:48:38.606Z,91.00
2018-10-09T05:51:07.446Z,91.00
2018-10-09T05:53:35.845Z,90.70
2018-10-09T05:56:04.419Z,90.80
2018-10-09T05:58:32.877Z,91.00
2018-10-09T06:01:01.362Z,91.20
2018-10-09T06:03:29.785Z,91.10
2018-10-09T06:05:58.349Z,90.90
2018-10-09T06:08:26.629Z,90.90
2018-10-09T06:10:55.130Z,90.70
2018-10-09T06:13:23.538Z,90.90
2018-10-09T06:15:52.180Z,91.00
2018-10-09T06:18:20.627Z,91.00
2018-10-09T06:20:49.077Z,90.90
2018-10-09T06:23:17.675Z,90.80
2018-10-09T06:25:46.124Z,90.90
2018-10-09T06:28:14.662Z,90.70
2018-10-09T06:30:42.875Z,90.60
2018-10-09T06:33:11.403Z,90.70
2018-10-09T06:35:40.230Z,90.80
2018-10-09T06:38:08.791Z,90.60
2018-10-09T06:40:37.258Z,90.70
2018-10-09T06:43:05.775Z,90.70
2018-10-09T06:45:34.298Z,90.60
2018-10-09T06:48:02.827Z,90.60
2018-10-09T06:50:31.703Z,90.80
2018-10-09T06:53:01.185Z,90.70
2018-10-09T06:55:29.827Z,90.80
2018-10-09T06:57:58.303Z,90.70
2018-10-09T07:00:26.811Z,90.80
2018-10-09T07:02:55.197Z,90.80
2018-10-09T07:05:23.640Z,91.00
2018-10-09T07:07:52.101Z,90.80
2018-10-09T07:10:20.569Z,90.90
2018-10-09T07:12:48.949Z,90.90
2018-10-09T07:15:17.425Z,90.80
2018-10-09T07:17:45.808Z,90.90
2018-10-09T07:20:14.296Z,90.80
2018-10-09T07:22:42.750Z,90.50
2018-10-09T07:25:11.200Z,90.70
2018-10-09T07:27:39.660Z,90.40
2018-10-09T07:30:08.804Z,90.50
2018-10-09T07:32:37.477Z,90.80
2018-10-09T07:35:07.114Z,90.70
2018-10-09T07:37:35.527Z,90.90
2018-10-09T07:40:04.049Z,90.50
2018-10-09T07:42:32.526Z,90.90
2018-10-09T07:45:01.044Z,90.70
2018-10-09T07:47:29.743Z,91.00
2018-10-09T07:49:58.214Z,91.20
2018-10-09T07:52:26.613Z,91.30
2018-10-09T07:54:55.101Z,91.30
2018-10-09T07:57:23.482Z,91.20
2018-10-09T07:59:52.035Z,91.10
2018-10-09T08:02:20.570Z,91.30
2018-10-09T08:04:49.107Z,91.30
2018-10-09T08:07:17.591Z,91.20
2018-10-09T08:09:46.061Z,91.30
2018-10-09T08:12:14.573Z,91.20
2018-10-09T08:14:43.095Z,91.50
2018-10-09T08:17:11.670Z,91.50
2018-10-09T08:19:40.270Z,91.70
2018-10-09T08:22:08.688Z,91.50
2018-10-09T08:24:37.201Z,91.90
2018-10-09T08:27:05.714Z,91.90
2018-10-09T08:29:34.142Z,92.30
2018-10-09T08:32:02.613Z,92.10
2018-10-09T08:34:31.266Z,92.20
2018-10-09T08:36:59.706Z,91.70
2018-10-09T08:39:28.222Z,91.90
2018-10-09T08:41:56.728Z,91.70
2018-10-09T08:44:25.157Z,92.00
2018-10-09T08:46:53.670Z,91.70
2018-10-09T08:49:22.161Z,91.80
2018-10-09T08:51:50.721Z,91.90
2018-10-09T08:54:19.558Z,91.80
2018-10-09T08:56:48.897Z,91.50
2018-10-09T08:59:24.683Z,90.80
2018-10-09T09:01:53.095Z,90.50
2018-10-09T09:04:21.682Z,90.70
2018-10-09T09:06:50.354Z,90.40
2018-10-09T09:09:18.687Z,90.10
2018-10-09T09:11:47.389Z,89.80
2018-10-09T09:14:16.133Z,89.90
2018-10-09T09:16:44.757Z,90.40
2018-10-09T09:19:13.466Z,89.40
2018-10-09T09:21:41.929Z,89.70
2018-10-09T09:24:10.482Z,89.60
2018-10-09T09:26:39.266Z,88.70
2018-10-09T09:29:07.781Z,88.70
2018-10-09T09:31:36.249Z,88.10
2018-10-09T09:34:04.711Z,87.60
2018-10-09T09:36:33.228Z,87.70
2018-10-09T09:39:01.897Z,87.90
2018-10-09T09:41:30.302Z,87.30
2018-10-09T09:43:58.710Z,87.10
2018-10-09T09:46:27.240Z,86.40
2018-10-09T09:48:55.724Z,86.30
2018-10-09T09:51:24.173Z,84.30
2018-10-09T09:53:52.656Z,84.80
2018-10-09T09:56:21.201Z,85.20
2018-10-09T09:58:49.856Z,84.80
2018-10-09T10:01:18.149Z,84.70
2018-10-09T10:03:46.743Z,82.60
2018-10-09T10:06:15.109Z,81.80
2018-10-09T10:08:43.546Z,80.90
2018-10-09T10:11:12.108Z,81.00
2018-10-09T10:13:40.532Z,79.60
2018-10-09T10:16:09.142Z,79.60
2018-10-09T10:18:37.602Z,77.30
2018-10-09T10:21:06.310Z,77.40
2018-10-09T10:23:34.945Z,77.10
2018-10-09T10:26:03.471Z,77.20
2018-10-09T10:28:31.925Z,78.00
2018-10-09T10:31:00.406Z,76.60
2018-10-09T10:33:28.852Z,75.90
2018-10-09T10:35:57.246Z,77.10
2018-10-09T10:38:25.767Z,76.30
2018-10-09T10:40:54.506Z,75.90
2018-10-09T10:43:23.202Z,74.20
2018-10-09T10:45:51.955Z,73.70
2018-10-09T10:48:20.406Z,73.40
2018-10-09T10:50:49.215Z,72.80
2018-10-09T10:53:17.745Z,71.30
2018-10-09T10:55:46.366Z,70.70
2018-10-09T10:58:14.845Z,70.20
2018-10-09T11:00:43.442Z,68.70
2018-10-09T11:03:12.287Z,68.50
2018-10-09T11:05:41.036Z,67.80
2018-10-09T11:08:09.760Z,68.70
2018-10-09T11:10:38.220Z,67.90
2018-10-09T11:13:06.818Z,67.00
2018-10-09T11:15:35.314Z,67.30
2018-10-09T11:18:03.916Z,67.20
2018-10-09T11:20:32.454Z,67.20
2018-10-09T11:23:00.927Z,64.30
2018-10-09T11:25:29.437Z,63.80
2018-10-09T11:27:57.916Z,63.30
2018-10-09T11:30:26.387Z,62.40
2018-10-09T11:32:54.884Z,63.20
2018-10-09T11:35:23.350Z,63.50
2018-10-09T11:37:51.772Z,62.70
2018-10-09T11:40:20.308Z,61.30
2018-10-09T11:42:48.915Z,62.10
2018-10-09T11:45:17.290Z,62.40
2018-10-09T11:47:45.901Z,60.40
2018-10-09T11:50:14.446Z,59.50
2018-10-09T11:52:42.965Z,58.20
2018-10-09T11:55:11.505Z,56.80
2018-10-09T11:57:40.049Z,57.10
2018-10-09T12:00:08.974Z,57.00
2018-10-09T12:05:24.264Z,57.70
2018-10-09T12:07:52.805Z,54.20
2018-10-09T12:10:21.424Z,55.30
2018-10-09T12:12:49.969Z,54.20
2018-10-09T12:15:18.457Z,53.90
2018-10-09T12:17:46.983Z,54.30
2018-10-09T12:20:15.408Z,53.80
2018-10-09T12:22:45.095Z,51.30
2018-10-09T12:25:13.583Z,52.50
2018-10-09T12:27:42.157Z,51.20
2018-10-09T12:30:10.574Z,48.90
2018-10-09T12:32:40.460Z,51.30
2018-10-09T12:35:08.911Z,52.10
2018-10-09T12:37:38.301Z,53.60
2018-10-09T12:40:06.978Z,54.70
2018-10-09T12:42:35.385Z,54.20
2018-10-09T12:45:03.841Z,55.20
2018-10-09T12:47:32.319Z,54.60
2018-10-09T12:50:01.113Z,54.00
2018-10-09T12:52:29.688Z,55.10
2018-10-09T12:54:59.184Z,54.50
2018-10-09T12:57:27.644Z,53.50
2018-10-09T12:59:56.193Z,53.90
2018-10-09T13:02:24.711Z,51.30
2018-10-09T13:04:53.359Z,51.30
2018-10-09T13:07:21.799Z,50.80
2018-10-09T13:09:50.344Z,51.60
2018-10-09T13:12:18.816Z,50.60
2018-10-09T13:14:47.240Z,52.50
2018-10-09T13:17:16.006Z,50.30
2018-10-09T13:19:44.441Z,49.10
2018-10-09T13:22:13.327Z,50.20
2018-10-09T13:24:41.646Z,51.90
2018-10-09T13:27:10.629Z,50.40
2018-10-09T13:29:39.273Z,49.00
2018-10-09T13:32:07.955Z,49.80
2018-10-09T13:34:36.641Z,51.40
2018-10-09T13:37:06.132Z,52.30
2018-10-09T13:39:34.735Z,51.30
2018-10-09T13:42:03.227Z,52.00
2018-10-09T13:44:31.787Z,51.00
2018-10-09T13:47:00.250Z,52.40
2018-10-09T13:49:28.730Z,51.90
2018-10-09T13:51:57.157Z,51.20
2018-10-09T13:54:25.684Z,52.20
2018-10-09T13:56:54.148Z,52.30
2018-10-09T13:59:22.550Z,53.20
2018-10-09T14:01:51.013Z,53.50
2018-10-09T14:04:19.504Z,53.60
2018-10-09T14:06:48.021Z,53.70
2018-10-09T14:09:16.543Z,55.20
2018-10-09T14:11:45.129Z,55.90
2018-10-09T14:14:13.543Z,56.30
2018-10-09T14:16:41.933Z,55.50
2018-10-09T14:19:10.376Z,55.70
2018-10-09T14:21:38.915Z,56.10
2018-10-09T14:24:07.337Z,57.70
2018-10-09T14:26:35.929Z,57.30
2018-10-09T14:29:04.416Z,56.50
2018-10-09T14:31:32.968Z,55.00
2018-10-09T14:34:01.377Z,56.80
2018-10-09T14:36:30.073Z,56.20
2018-10-09T14:38:58.554Z,58.10
2018-10-09T14:41:27.178Z,57.00
2018-10-09T14:43:55.783Z,56.00
2018-10-09T14:46:24.288Z,55.90
2018-10-09T14:48:52.818Z,56.20
2018-10-09T14:51:21.359Z,56.50
2018-10-09T14:53:49.816Z,56.30
2018-10-09T14:56:18.307Z,56.40
2018-10-09T14:58:46.812Z,56.00
2018-10-09T15:01:15.293Z,55.60
2018-10-09T15:03:43.726Z,55.20
2018-10-09T15:06:12.185Z,56.00
2018-10-09T15:08:40.645Z,57.70
2018-10-09T15:11:09.054Z,55.80
2018-10-09T15:13:37.569Z,55.20
2018-10-09T15:16:06.101Z,55.00
2018-10-09T15:18:34.521Z,54.80
2018-10-09T15:21:03.004Z,57.50
2018-10-09T15:23:31.482Z,56.40
2018-10-09T15:25:59.884Z,56.30
2018-10-09T15:28:28.252Z,56.20
2018-10-09T15:30:56.633Z,58.20
2018-10-09T15:33:25.012Z,57.90
2018-10-09T15:35:53.501Z,58.50
2018-10-09T15:38:21.899Z,58.30
2018-10-09T15:40:50.420Z,57.80
2018-10-09T15:43:18.825Z,57.90
2018-10-09T15:45:47.176Z,58.60
2018-10-09T15:48:15.590Z,59.70
2018-10-09T15:50:44.156Z,58.40
2018-10-09T15:53:12.584Z,58.00
2018-10-09T15:55:41.125Z,58.60
2018-10-09T15:58:09.615Z,59.50
2018-10-09T16:00:39.034Z,60.70
2018-10-09T16:03:08.247Z,60.80
2018-10-09T16:05:36.651Z,60.00
2018-10-09T16:08:05.180Z,60.50
2018-10-09T16:10:33.665Z,61.60
2018-10-09T16:13:02.316Z,62.70
2018-10-09T16:15:30.700Z,62.10
2018-10-09T16:17:59.168Z,62.70
2018-10-09T16:20:27.627Z,63.40
2018-10-09T16:22:55.977Z,63.40
2018-10-09T16:25:24.400Z,63.90
2018-10-09T16:27:52.830Z,64.00
2018-10-09T16:30:21.248Z,64.30
2018-10-09T16:32:49.815Z,64.80
2018-10-09T16:35:18.063Z,65.80
2018-10-09T16:37:46.479Z,65.40
2018-10-09T16:40:14.940Z,65.80
2018-10-09T16:42:43.243Z,66.20
2018-10-09T16:45:11.665Z,67.00
2018-10-09T16:47:40.105Z,67.40
2018-10-09T16:50:08.589Z,67.70
2018-10-09T16:52:36.993Z,68.10
2018-10-09T16:55:05.744Z,68.50
2018-10-09T16:57:34.120Z,68.00
2018-10-09T17:00:03.083Z,69.10
2018-10-09T17:02:31.521Z,69.80
2018-10-09T17:04:59.880Z,70.90
2018-10-09T17:07:28.256Z,70.10
2018-10-09T17:09:56.676Z,70.00
2018-10-09T17:12:25.033Z,69.30
2018-10-09T17:14:53.471Z,69.00
2018-10-09T17:17:21.837Z,69.60
2018-10-09T17:19:53.781Z,69.80
2018-10-09T17:22:22.305Z,70.90
2018-10-09T17:24:50.738Z,70.90
2018-10-09T17:27:19.230Z,71.20
2018-10-09T17:29:47.702Z,70.90
2018-10-09T17:32:16.146Z,71.30
2018-10-09T17:34:44.602Z,72.00
2018-10-09T17:37:13.051Z,72.10
2018-10-09T17:39:41.442Z,73.20
2018-10-09T17:42:09.997Z,73.90
2018-10-09T17:44:38.439Z,73.90
2018-10-09T17:47:07.082Z,74.60
2018-10-09T17:49:36.216Z,74.40
2018-10-09T17:52:04.665Z,74.40
2018-10-09T17:54:33.260Z,74.60
2018-10-09T17:57:01.815Z,74.30
2018-10-09T17:59:30.447Z,74.80
2018-10-09T18:01:59.306Z,75.30
2018-10-09T18:04:28.467Z,75.40
2018-10-09T18:06:57.189Z,75.30
2018-10-09T18:09:25.621Z,75.40
2018-10-09T18:11:54.177Z,75.60
2018-10-09T18:14:22.681Z,75.70
2018-10-09T18:16:51.249Z,75.80
2018-10-09T18:19:19.901Z,76.20
2018-10-09T18:21:48.716Z,76.60
2018-10-09T18:24:17.197Z,76.40
2018-10-09T18:26:45.780Z,76.40
2018-10-09T18:29:14.180Z,76.70
2018-10-09T18:31:42.786Z,76.40
2018-10-09T18:34:11.261Z,76.40
2018-10-09T18:36:39.957Z,76.80
2018-10-09T18:39:11.843Z,77.40
2018-10-09T18:41:40.549Z,77.10
2018-10-09T18:44:08.989Z,77.40
2018-10-09T18:46:37.411Z,77.30
2018-10-09T18:49:05.912Z,78.00
2018-10-09T18:51:34.876Z,78.10
2018-10-09T18:54:03.273Z,78.10
2018-10-09T18:56:31.821Z,78.50
2018-10-09T18:59:00.382Z,78.50
2018-10-09T19:01:28.849Z,78.30
2018-10-09T19:03:57.352Z,78.30
2018-10-09T19:06:25.921Z,78.10
2018-10-09T19:08:54.466Z,78.30
2018-10-09T19:11:25.774Z,78.60
2018-10-09T19:13:54.873Z,78.70
2018-10-09T19:16:23.753Z,79.10
2018-10-09T19:18:52.227Z,79.40
2018-10-09T19:21:20.740Z,79.60
2018-10-09T19:23:49.358Z,80.00
2018-10-09T19:26:17.777Z,80.20
2018-10-09T19:28:46.314Z,80.50
2018-10-09T19:31:14.724Z,80.60
2018-10-09T19:33:43.147Z,81.10
2018-10-09T19:36:11.593Z,80.90
2018-10-09T19:38:40.112Z,80.80
2018-10-09T19:41:08.615Z,80.70
2018-10-09T19:43:38.367Z,81.10
2018-10-09T19:46:06.836Z,81.70
2018-10-09T19:48:35.293Z,81.90
2018-10-09T19:51:03.987Z,82.50
2018-10-09T19:53:32.354Z,82.30
2018-10-09T19:56:01.014Z,82.10
2018-10-09T19:58:29.428Z,82.60
2018-10-09T20:00:58.064Z,82.50
2018-10-09T20:03:26.521Z,82.50
2018-10-09T20:05:55.145Z,82.50
2018-10-09T20:08:23.749Z,82.60
2018-10-09T20:10:52.299Z,82.90
2018-10-09T20:13:20.780Z,82.60
2018-10-09T20:15:49.309Z,82.70
2018-10-09T20:18:21.518Z,83.10
2018-10-09T20:20:50.165Z,83.20
2018-10-09T20:23:18.525Z,83.60
2018-10-09T20:25:46.935Z,83.60
2018-10-09T20:28:15.368Z,83.40
2018-10-09T20:30:43.816Z,83.30
2018-10-09T20:33:12.355Z,83.30
2018-10-09T20:35:40.809Z,84.10
2018-10-09T20:38:09.306Z,83.80
2018-10-09T20:40:37.709Z,84.00
2018-10-09T20:43:06.105Z,84.90
2018-10-09T20:45:34.521Z,84.50
2018-10-09T20:48:03.063Z,84.70
2018-10-09T20:50:32.410Z,84.60
2018-10-09T20:53:00.873Z,84.50
2018-10-09T20:55:29.333Z,84.60
2018-10-09T20:57:57.777Z,84.70
2018-10-09T21:00:26.264Z,84.90
2018-10-09T21:02:54.702Z,84.70
2018-10-09T21:05:23.180Z,84.50
2018-10-09T21:07:51.617Z,84.70
2018-10-09T21:10:20.029Z,84.80
2018-10-09T21:12:49.014Z,84.70
2018-10-09T21:15:25.588Z,85.00
2018-10-09T21:17:54.290Z,85.10
2018-10-09T21:20:22.681Z,84.90
2018-10-09T21:22:51.323Z,85.00
2018-10-09T21:25:19.810Z,85.00
2018-10-09T21:27:48.229Z,85.20
2018-10-09T21:30:16.826Z,85.20
2018-10-09T21:32:45.289Z,85.40
2018-10-09T21:35:13.729Z,85.30
2018-10-09T21:37:42.298Z,85.40
2018-10-09T21:40:10.734Z,85.30
2018-10-09T21:42:39.461Z,85.60
2018-10-09T21:45:07.886Z,85.60
2018-10-09T21:47:36.376Z,85.80
2018-10-09T21:50:05.004Z,86.10
2018-10-09T21:52:33.520Z,86.10
2018-10-09T21:55:02.020Z,86.50
2018-10-09T21:57:30.528Z,86.60
2018-10-09T21:59:59.001Z,86.90
2018-10-09T22:02:27.486Z,86.90
2018-10-09T22:04:56.017Z,86.90
2018-10-09T22:07:24.425Z,86.80
2018-10-09T22:09:52.877Z,86.70
2018-10-09T22:12:21.321Z,86.80
2018-10-09T22:14:49.818Z,86.80
2018-10-09T22:17:18.326Z,86.70
2018-10-09T22:19:46.802Z,86.90
2018-10-09T22:22:15.264Z,86.80
2018-10-09T22:24:43.668Z,87.20
2018-10-09T22:27:12.279Z,86.60
2018-10-09T22:29:40.834Z,87.00
2018-10-09T22:32:09.363Z,87.20
2018-10-09T22:34:37.885Z,87.10
2018-10-09T22:37:07.398Z,87.10
2018-10-09T22:39:35.884Z,87.20
2018-10-09T22:42:04.379Z,87.10
2018-10-09T22:44:33.014Z,87.10
2018-10-09T22:47:01.506Z,86.60
2018-10-09T22:49:30.090Z,87.00
2018-10-09T22:51:58.700Z,87.10
2018-10-09T22:54:28.078Z,87.10
2018-10-09T22:56:57.025Z,87.30
2018-10-09T22:59:26.150Z,87.30
2018-10-09T23:01:54.629Z,88.10
2018-10-09T23:04:23.185Z,87.90
2018-10-09T23:06:51.723Z,87.80
2018-10-09T23:09:20.190Z,87.80
2018-10-09T23:11:48.645Z,87.80
2018-10-09T23:14:17.405Z,87.80
2018-10-09T23:16:45.809Z,87.80
2018-10-09T23:19:14.265Z,87.80
2018-10-09T23:21:42.681Z,88.00
2018-10-09T23:24:11.737Z,88.00
2018-10-09T23:26:40.076Z,87.80
2018-10-09T23:29:08.501Z,87.70
2018-10-09T23:31:37.008Z,87.50
2018-10-09T23:34:05.547Z,87.80
2018-10-09T23:36:34.033Z,88.10
2018-10-09T23:39:02.685Z,87.80
2018-10-09T23:41:31.267Z,87.80
2018-10-09T23:43:59.849Z,87.90
2018-10-09T23:46:28.418Z,88.40
2018-10-09T23:48:57.019Z,88.10
2018-10-09T23:51:25.504Z,88.10
2018-10-09T23:53:54.007Z,88.90
2018-10-09T23:56:22.529Z,88.20
2018-10-09T23:58:50.985Z,88.20
